Terminal Aerodrome Forecast
Issued by NWS

Home | Current Version | Previous Version | Text Only | Print | Product List | Glossary On
Versions: 1 2 3 4 5 6 7 8 9 10 11 12 13 14
000
FTUS43 KMQT 262300
TAFCMX
TAF
KCMX 262335Z 2700/2724 35005KT P6SM -SHSN OVC025
     FM270200 36006KT P6SM VCSH OVC015
     FM270700 01011KT 5SM -SN OVC012
     FM271200 01010KT 2SM -SN OVC008
     FM272000 33008KT 5SM -SN OVC015
     FM272300 31010KT P6SM -SN OVC025=

USA.gov is the U.S. government's official web portal to all federal, state and local government web resources and services.